createdAt,value
2023-01-06T00:00:33.624Z,100303.22
2023-01-06T00:01:17.812Z,100299.72
2023-01-06T00:02:01.423Z,100292.31
2023-01-06T00:02:43.270Z,100272.44
2023-01-06T00:03:24.945Z,100295.38
2023-01-06T00:04:06.703Z,100274.84
2023-01-06T00:04:48.417Z,100270.75
2023-01-06T00:05:30.818Z,100295.50
2023-01-06T00:06:13.303Z,100289.19
2023-01-06T00:06:54.949Z,100289.19
2023-01-06T00:07:36.928Z,100276.97
2023-01-06T00:08:18.521Z,100291.50
2023-01-06T00:09:02.639Z,100286.84
2023-01-06T00:09:44.284Z,100289.50
2023-01-06T00:10:26.128Z,100286.50
2023-01-06T00:11:13.107Z,100289.75
2023-01-06T00:11:54.770Z,100267.13
2023-01-06T00:12:36.669Z,100269.34
2023-01-06T00:13:18.491Z,100279.63
2023-01-06T00:14:00.541Z,100288.41
2023-01-06T00:14:44.130Z,100259.00
2023-01-06T00:15:26.181Z,100285.59
2023-01-06T00:16:11.274Z,100276.16
2023-01-06T00:16:53.023Z,100281.28
2023-01-06T00:17:34.710Z,100271.50
2023-01-06T00:18:16.410Z,100273.84
2023-01-06T00:19:00.180Z,100269.19
2023-01-06T00:19:41.868Z,100272.13
2023-01-06T00:20:23.581Z,100276.06
2023-01-06T00:21:06.269Z,100263.19
2023-01-06T00:22:12.864Z,100276.38
2023-01-06T00:22:54.598Z,100253.91
2023-01-06T00:23:37.187Z,100272.72
2023-01-06T00:24:20.017Z,100271.59
2023-01-06T00:25:01.826Z,100251.91
2023-01-06T00:25:50.592Z,100267.41
2023-01-06T00:26:32.286Z,100271.41
2023-01-06T00:27:13.991Z,100262.63
2023-01-06T00:27:55.830Z,100253.91
2023-01-06T00:28:37.837Z,100246.28
2023-01-06T00:29:19.534Z,100269.75
2023-01-06T00:30:01.426Z,100247.28
2023-01-06T00:30:43.520Z,100277.44
2023-01-06T00:31:27.727Z,100264.53
2023-01-06T00:32:09.595Z,100271.00
2023-01-06T00:32:51.389Z,100263.44
2023-01-06T00:33:33.177Z,100262.13
2023-01-06T00:34:14.971Z,100247.50
2023-01-06T00:34:56.588Z,100239.91
2023-01-06T00:35:38.283Z,100252.09
2023-01-06T00:36:21.723Z,100257.41
2023-01-06T00:37:04.085Z,100252.38
2023-01-06T00:37:45.762Z,100239.00
2023-01-06T00:38:27.793Z,100234.03
2023-01-06T00:39:13.869Z,100251.84
2023-01-06T00:39:55.661Z,100257.00
2023-01-06T00:40:38.006Z,100239.09
2023-01-06T00:41:39.640Z,100258.81
2023-01-06T00:42:22.481Z,100245.63
2023-01-06T00:43:04.631Z,100242.84
2023-01-06T00:43:46.248Z,100262.00
2023-01-06T00:44:27.947Z,100260.34
2023-01-06T00:45:10.243Z,100258.72
2023-01-06T00:45:51.953Z,100268.69
2023-01-06T00:46:34.380Z,100260.06
2023-01-06T00:47:16.754Z,100265.38
2023-01-06T00:47:58.607Z,100258.22
2023-01-06T00:48:46.825Z,100261.06
2023-01-06T00:49:31.932Z,100229.97
2023-01-06T00:50:13.662Z,100223.38
2023-01-06T00:51:00.849Z,100259.16
2023-01-06T00:51:42.762Z,100267.31
2023-01-06T00:52:24.459Z,100258.72
2023-01-06T00:53:07.136Z,100261.53
2023-01-06T00:53:48.901Z,100266.03
2023-01-06T00:54:30.728Z,100260.88
2023-01-06T00:55:12.397Z,100258.75
2023-01-06T00:56:00.299Z,100247.50
2023-01-06T00:56:47.021Z,100261.88
2023-01-06T00:57:29.006Z,100261.88
2023-01-06T00:58:10.927Z,100260.88
2023-01-06T00:58:54.061Z,100241.34
2023-01-06T00:59:36.002Z,100233.13
2023-01-06T01:00:17.740Z,100257.50
2023-01-06T01:01:05.170Z,100249.09
2023-01-06T01:01:48.409Z,100256.00
2023-01-06T01:02:30.238Z,100254.81
2023-01-06T01:03:12.160Z,100247.19
2023-01-06T01:03:53.921Z,100251.97
2023-01-06T01:04:35.717Z,100241.06
2023-01-06T01:05:17.415Z,100233.63
2023-01-06T01:06:04.081Z,100254.72
2023-01-06T01:06:47.076Z,100250.16
2023-01-06T01:07:28.760Z,100255.56
2023-01-06T01:08:10.423Z,100248.28
2023-01-06T01:08:56.508Z,100255.88
2023-01-06T01:09:38.259Z,100258.69
2023-01-06T01:10:19.953Z,100228.13
2023-01-06T01:11:10.852Z,100260.22
2023-01-06T01:12:11.789Z,100240.75
2023-01-06T01:12:54.017Z,100256.63
2023-01-06T01:13:36.224Z,100259.47
2023-01-06T01:14:20.193Z,100254.50
2023-01-06T01:15:01.974Z,100248.94
2023-01-06T01:15:43.691Z,100227.97
2023-01-06T01:16:25.323Z,100250.09
2023-01-06T01:17:08.541Z,100233.22
2023-01-06T01:17:50.158Z,100246.06
2023-01-06T01:18:31.842Z,100245.25
2023-01-06T01:19:14.371Z,100241.97
2023-01-06T01:19:57.812Z,100226.97
2023-01-06T01:20:39.428Z,100247.13
2023-01-06T01:21:21.126Z,100227.69
2023-01-06T01:22:03.126Z,100240.34
2023-01-06T01:22:44.807Z,100243.84
2023-01-06T01:23:26.884Z,100240.53
2023-01-06T01:24:08.994Z,100244.66
2023-01-06T01:24:51.302Z,100241.34
2023-01-06T01:25:32.983Z,100238.91
2023-01-06T01:26:14.757Z,100238.91
2023-01-06T01:26:56.853Z,100240.53
2023-01-06T01:27:39.719Z,100243.19
2023-01-06T01:28:21.412Z,100241.06
2023-01-06T01:29:03.253Z,100226.84
2023-01-06T01:29:44.930Z,100236.25
2023-01-06T01:30:26.581Z,100233.47
2023-01-06T01:31:08.459Z,100238.94
2023-01-06T01:31:50.495Z,100243.25
2023-01-06T01:32:32.201Z,100223.78
2023-01-06T01:33:13.862Z,100243.59
2023-01-06T01:33:55.544Z,100240.31
2023-01-06T01:34:37.413Z,100243.97
2023-01-06T01:35:19.263Z,100236.84
2023-01-06T01:36:08.434Z,100225.75
2023-01-06T01:36:52.049Z,100236.63
2023-01-06T01:37:33.815Z,100228.97
2023-01-06T01:38:15.475Z,100238.25
2023-01-06T01:38:58.315Z,100206.53
2023-01-06T01:39:40.146Z,100226.63
2023-01-06T01:40:21.834Z,100229.28
2023-01-06T01:41:04.222Z,100233.88
2023-01-06T01:41:46.639Z,100228.38
2023-01-06T01:42:28.468Z,100230.53
2023-01-06T01:43:12.193Z,100234.63
2023-01-06T01:43:56.867Z,100228.97
2023-01-06T01:44:56.552Z,100233.75
2023-01-06T01:45:41.598Z,100233.56
2023-01-06T01:46:28.744Z,100230.75
2023-01-06T01:47:14.360Z,100213.41
2023-01-06T01:48:04.782Z,100237.88
2023-01-06T01:48:46.536Z,100246.03
2023-01-06T01:49:32.969Z,100217.78
2023-01-06T01:50:25.068Z,100230.28
2023-01-06T01:51:11.539Z,100238.06
2023-01-06T01:51:56.251Z,100223.00
2023-01-06T01:52:38.877Z,100229.91
2023-01-06T01:53:28.691Z,100240.16
2023-01-06T01:54:25.857Z,100235.03
2023-01-06T01:55:08.515Z,100218.25
2023-01-06T01:55:53.417Z,100234.75
2023-01-06T01:56:37.285Z,100233.09
2023-01-06T01:57:43.962Z,100230.28
2023-01-06T01:58:29.742Z,100218.91
2023-01-06T01:59:16.998Z,100231.94
2023-01-06T01:59:59.698Z,100226.63
2023-01-06T02:00:43.587Z,100231.28
2023-01-06T02:01:25.473Z,100221.56
2023-01-06T02:02:07.858Z,100219.91
2023-01-06T02:02:50.057Z,100219.53
2023-01-06T02:03:31.875Z,100207.84
2023-01-06T02:04:16.162Z,100222.25
2023-01-06T02:04:59.430Z,100206.69
2023-01-06T02:05:45.386Z,100231.53
2023-01-06T02:06:30.041Z,100215.06
2023-01-06T02:07:12.599Z,100227.09
2023-01-06T02:07:58.513Z,100222.97
2023-01-06T02:08:44.602Z,100218.03
2023-01-06T02:10:15.477Z,100170.69
2023-01-06T02:10:58.055Z,100205.88
2023-01-06T02:11:41.582Z,100211.00
2023-01-06T02:12:23.368Z,100209.34
2023-01-06T02:13:05.300Z,100226.22
2023-01-06T02:13:50.878Z,100205.88
2023-01-06T02:14:32.654Z,100235.47
2023-01-06T02:15:16.640Z,100226.84
2023-01-06T02:16:10.900Z,100211.53
2023-01-06T02:16:58.306Z,100229.72
2023-01-06T02:17:44.153Z,100206.59
2023-01-06T02:18:55.174Z,100216.66
2023-01-06T02:19:55.561Z,100232.53
2023-01-06T02:20:55.703Z,100228.06
2023-01-06T02:22:15.537Z,100228.06
2023-01-06T02:23:15.502Z,100227.06
2023-01-06T02:24:33.288Z,100227.06
2023-01-06T02:25:42.784Z,100210.91
2023-01-06T02:26:37.014Z,100226.41
2023-01-06T02:27:25.130Z,100233.69
2023-01-06T02:28:37.783Z,100231.41
2023-01-06T02:30:04.267Z,100228.25
2023-01-06T02:31:01.105Z,100231.75
2023-01-06T02:31:54.947Z,100229.25
2023-01-06T02:32:41.271Z,100227.44
2023-01-06T02:33:32.977Z,100228.44
2023-01-06T02:34:48.526Z,100228.25
2023-01-06T02:35:35.649Z,100222.13
2023-01-06T02:36:27.142Z,100227.44
2023-01-06T02:37:40.203Z,100224.59
2023-01-06T02:39:00.176Z,100223.78
2023-01-06T02:40:23.940Z,100222.97
2023-01-06T02:41:39.206Z,100196.00
2023-01-06T02:42:42.004Z,100228.09
2023-01-06T02:43:56.501Z,100223.78
2023-01-06T02:44:53.171Z,100219.31
2023-01-06T02:45:40.552Z,100225.78
2023-01-06T02:46:36.567Z,100205.94
2023-01-06T02:47:24.225Z,100193.09
2023-01-06T02:48:12.224Z,100221.97
2023-01-06T02:48:57.041Z,100218.47
2023-01-06T02:49:41.745Z,100218.47
2023-01-06T02:50:43.336Z,100215.66
2023-01-06T02:51:36.102Z,100222.59
2023-01-06T02:52:24.473Z,100219.78
2023-01-06T02:53:24.761Z,100217.78
2023-01-06T02:54:32.350Z,100216.63
2023-01-06T02:55:27.991Z,100214.47
2023-01-06T02:56:11.158Z,100210.25
2023-01-06T02:57:22.285Z,100209.75
2023-01-06T02:58:25.608Z,100202.31
2023-01-06T02:59:20.607Z,100213.59
2023-01-06T03:00:07.406Z,100221.03
2023-01-06T03:01:22.693Z,100220.38
2023-01-06T03:02:06.220Z,100192.78
2023-01-06T03:02:55.781Z,100196.44
2023-01-06T03:03:40.856Z,100228.31
2023-01-06T03:04:28.943Z,100217.06
2023-01-06T03:05:15.387Z,100217.88
2023-01-06T03:06:08.954Z,100202.88
2023-01-06T03:06:54.830Z,100200.72
2023-01-06T03:07:39.306Z,100205.97
2023-01-06T03:08:25.023Z,100226.97
2023-01-06T03:09:06.943Z,100223.50
2023-01-06T03:09:57.659Z,100222.50
2023-01-06T03:10:41.824Z,100199.66
2023-01-06T03:11:27.518Z,100219.97
2023-01-06T03:12:19.870Z,100200.47
2023-01-06T03:13:25.856Z,100226.84
2023-01-06T03:14:35.329Z,100225.69
2023-01-06T03:15:17.381Z,100212.31
2023-01-06T03:16:01.060Z,100206.84
2023-01-06T03:16:43.131Z,100212.59
2023-01-06T03:17:25.514Z,100228.50
2023-01-06T03:18:07.489Z,100213.31
2023-01-06T03:18:52.607Z,100211.94
2023-01-06T03:19:36.675Z,100196.81
2023-01-06T03:20:19.976Z,100217.44
2023-01-06T03:21:07.532Z,100210.47
2023-01-06T03:21:51.398Z,100214.25
2023-01-06T03:22:38.852Z,100208.47
2023-01-06T03:23:21.187Z,100213.72
2023-01-06T03:24:08.739Z,100182.66
2023-01-06T03:24:51.199Z,100210.25
2023-01-06T03:25:38.163Z,100205.41
2023-01-06T03:26:20.305Z,100209.63
2023-01-06T03:27:03.883Z,100193.59
2023-01-06T03:27:46.456Z,100185.63
2023-01-06T03:28:28.191Z,100199.28
2023-01-06T03:29:13.420Z,100181.72
2023-01-06T03:29:55.547Z,100196.19
2023-01-06T03:30:45.362Z,100198.78
2023-01-06T03:31:42.582Z,100207.03
2023-01-06T03:33:01.385Z,100202.16
2023-01-06T03:34:06.175Z,100205.94
2023-01-06T03:35:09.325Z,100203.47
2023-01-06T03:36:07.831Z,100200.00
2023-01-06T03:36:54.565Z,100196.50
2023-01-06T03:38:10.623Z,100200.50
2023-01-06T03:39:07.086Z,100194.75
2023-01-06T03:40:09.808Z,100200.25
2023-01-06T03:41:03.775Z,100193.63
2023-01-06T03:42:35.529Z,100164.66
2023-01-06T03:43:42.230Z,100206.00
2023-01-06T03:44:29.966Z,100194.41
2023-01-06T03:45:26.903Z,100195.91
2023-01-06T03:46:30.082Z,100197.72
2023-01-06T03:47:24.363Z,100184.22
2023-01-06T03:48:13.877Z,100193.16
2023-01-06T03:49:04.393Z,100193.97
2023-01-06T03:49:56.157Z,100189.00
2023-01-06T03:50:49.097Z,100197.72
2023-01-06T03:51:47.771Z,100183.44
2023-01-06T03:52:33.239Z,100191.06
2023-01-06T03:53:27.739Z,100197.69
2023-01-06T03:54:47.136Z,100192.16
2023-01-06T03:55:33.622Z,100179.97
2023-01-06T03:56:18.898Z,100187.09
2023-01-06T03:57:07.388Z,100192.06
2023-01-06T03:57:52.963Z,100201.94
2023-01-06T03:58:37.775Z,100179.69
2023-01-06T03:59:22.882Z,100200.50
2023-01-06T04:00:12.186Z,100191.41
2023-01-06T04:01:01.183Z,100198.19
2023-01-06T04:01:44.218Z,100189.13
2023-01-06T04:02:28.403Z,100192.06
2023-01-06T04:03:13.911Z,100191.75
2023-01-06T04:03:58.972Z,100184.53
2023-01-06T04:04:43.530Z,100174.63
2023-01-06T04:05:28.187Z,100186.19
2023-01-06T04:06:11.785Z,100187.84
2023-01-06T04:06:54.858Z,100190.09
2023-01-06T04:07:38.215Z,100182.88
2023-01-06T04:08:20.705Z,100186.84
2023-01-06T04:09:02.518Z,100193.41
2023-01-06T04:09:44.923Z,100190.41
2023-01-06T04:10:27.377Z,100166.31
2023-01-06T04:11:31.044Z,100179.50
2023-01-06T04:12:31.249Z,100186.75
2023-01-06T04:13:13.045Z,100180.44
2023-01-06T04:13:54.783Z,100178.16
2023-01-06T04:14:36.819Z,100180.16
2023-01-06T04:15:22.347Z,100190.53
2023-01-06T04:16:05.519Z,100174.41
2023-01-06T04:16:47.710Z,100188.06
2023-01-06T04:17:29.445Z,100185.75
2023-01-06T04:18:11.364Z,100180.44
2023-01-06T04:18:55.065Z,100181.44
2023-01-06T04:19:36.822Z,100181.63
2023-01-06T04:20:22.131Z,100185.44
2023-01-06T04:21:06.255Z,100171.28
2023-01-06T04:21:48.960Z,100181.16
2023-01-06T04:22:32.009Z,100175.22
2023-01-06T04:23:13.966Z,100184.09
2023-01-06T04:23:56.445Z,100182.28
2023-01-06T04:24:38.175Z,100170.44
2023-01-06T04:25:21.130Z,100189.41
2023-01-06T04:26:02.775Z,100180.78
2023-01-06T04:26:49.958Z,100179.63
2023-01-06T04:27:31.841Z,100172.56
2023-01-06T04:28:13.788Z,100168.63
2023-01-06T04:28:56.069Z,100181.16
2023-01-06T04:29:37.720Z,100178.88
2023-01-06T04:30:19.618Z,100152.47
2023-01-06T04:31:02.448Z,100165.84
2023-01-06T04:31:49.384Z,100179.88
2023-01-06T04:32:31.187Z,100171.91
2023-01-06T04:33:14.565Z,100171.09
2023-01-06T04:33:59.099Z,100172.75
2023-01-06T04:34:40.838Z,100167.25
2023-01-06T04:35:22.769Z,100119.41
2023-01-06T04:36:04.906Z,100135.56
2023-01-06T04:36:47.479Z,100163.41
2023-01-06T04:37:29.336Z,100160.09
2023-01-06T04:38:10.971Z,100162.56
2023-01-06T04:38:55.393Z,100166.22
2023-01-06T04:39:37.111Z,100154.34
2023-01-06T04:40:19.146Z,100163.31
2023-01-06T04:41:00.816Z,100142.03
2023-01-06T04:41:42.516Z,100171.63
2023-01-06T04:42:24.262Z,100164.84
2023-01-06T04:43:05.975Z,100150.63
2023-01-06T04:43:48.450Z,100153.56
2023-01-06T04:44:30.395Z,100134.31
2023-01-06T04:45:12.183Z,100155.22
2023-01-06T04:45:53.950Z,100133.78
2023-01-06T04:46:35.781Z,100146.34
2023-01-06T04:47:17.459Z,100161.34
2023-01-06T04:47:59.278Z,100136.91
2023-01-06T04:48:40.951Z,100156.03
2023-01-06T04:49:22.724Z,100138.25
2023-01-06T04:50:04.834Z,100139.06
2023-01-06T04:50:46.493Z,100127.38
2023-01-06T04:51:28.334Z,100157.78
2023-01-06T04:52:10.395Z,100152.13
2023-01-06T04:52:52.117Z,100146.00
2023-01-06T04:53:35.158Z,100141.22
2023-01-06T04:54:16.972Z,100120.06
2023-01-06T04:54:58.636Z,100132.59
2023-01-06T04:55:41.912Z,100148.47
2023-01-06T04:56:25.282Z,100145.00
2023-01-06T04:57:08.343Z,100145.81
2023-01-06T04:57:50.817Z,100145.84
2023-01-06T04:58:33.143Z,100156.13
2023-01-06T04:59:14.812Z,100143.38
2023-01-06T04:59:56.463Z,100150.16
2023-01-06T05:00:38.228Z,100145.59
2023-01-06T05:01:19.950Z,100154.16
2023-01-06T05:02:01.738Z,100150.72
2023-01-06T05:02:43.399Z,100148.84
2023-01-06T05:03:25.060Z,100157.03
2023-01-06T05:04:07.387Z,100147.41
2023-01-06T05:04:49.166Z,100141.31
2023-01-06T05:05:30.832Z,100148.41
2023-01-06T05:06:13.008Z,100145.75
2023-01-06T05:06:54.751Z,100127.78
2023-01-06T05:07:36.544Z,100147.41
2023-01-06T05:08:18.224Z,100140.81
2023-01-06T05:08:59.960Z,100145.59
2023-01-06T05:09:41.684Z,100143.75
2023-01-06T05:10:23.364Z,100111.72
2023-01-06T05:11:07.805Z,100125.06
2023-01-06T05:11:49.570Z,100146.03
2023-01-06T05:12:32.649Z,100117.28
2023-01-06T05:13:14.441Z,100144.69
2023-01-06T05:13:56.164Z,100140.22
2023-01-06T05:14:37.812Z,100140.22
2023-01-06T05:15:19.865Z,100125.66
2023-01-06T05:16:05.528Z,100120.50
2023-01-06T05:16:47.193Z,100133.59
2023-01-06T05:17:29.052Z,100134.81
2023-01-06T05:18:11.110Z,100126.03
2023-01-06T05:18:53.819Z,100140.22
2023-01-06T05:19:35.583Z,100134.25
2023-01-06T05:20:17.283Z,100102.63
2023-01-06T05:20:59.195Z,100130.03
2023-01-06T05:21:40.831Z,100139.47
2023-01-06T05:22:22.548Z,100139.97
2023-01-06T05:23:04.335Z,100135.16
2023-01-06T05:23:46.204Z,100130.69
2023-01-06T05:24:27.825Z,100135.16
2023-01-06T05:25:09.622Z,100134.81
2023-01-06T05:25:52.500Z,100130.69
2023-01-06T05:26:34.518Z,100125.25
2023-01-06T05:27:16.206Z,100139.28
2023-01-06T05:27:57.976Z,100120.13
2023-01-06T05:28:39.637Z,100104.28
2023-01-06T05:29:21.404Z,100117.84
2023-01-06T05:30:03.507Z,100138.47
2023-01-06T05:30:45.440Z,100114.34
2023-01-06T05:31:27.186Z,100132.78
2023-01-06T05:32:08.996Z,100130.13
2023-01-06T05:32:50.627Z,100117.13
2023-01-06T05:33:33.346Z,100119.75
2023-01-06T05:34:15.054Z,100121.06
2023-01-06T05:34:56.725Z,100128.84
2023-01-06T05:35:38.400Z,100135.44
2023-01-06T05:36:20.133Z,100126.53
2023-01-06T05:37:01.994Z,100134.81
2023-01-06T05:37:43.697Z,100119.13
2023-01-06T05:38:25.653Z,100137.25
2023-01-06T05:39:07.416Z,100136.25
2023-01-06T05:39:49.149Z,100113.72
2023-01-06T05:40:31.252Z,100117.47
2023-01-06T05:41:12.903Z,100126.53
2023-01-06T05:41:54.624Z,100119.13
2023-01-06T05:42:36.348Z,100131.94
2023-01-06T05:43:18.106Z,100139.38
2023-01-06T05:43:59.815Z,100113.38
2023-01-06T05:44:41.521Z,100134.44
2023-01-06T05:45:24.425Z,100118.28
2023-01-06T05:46:08.293Z,100137.63
2023-01-06T05:46:50.115Z,100118.66
2023-01-06T05:47:31.727Z,100144.59
2023-01-06T05:48:13.623Z,100149.88
2023-01-06T05:48:55.270Z,100149.88
2023-01-06T05:49:36.897Z,100126.63
2023-01-06T05:50:19.005Z,100115.22
2023-01-06T05:51:04.670Z,100152.88
2023-01-06T05:51:46.431Z,100128.78
2023-01-06T05:52:28.103Z,100128.06
2023-01-06T05:53:10.060Z,100140.28
2023-01-06T05:53:51.764Z,100142.22
2023-01-06T05:54:33.388Z,100138.72
2023-01-06T05:55:15.142Z,100156.78
2023-01-06T05:56:00.811Z,100149.47
2023-01-06T05:56:42.537Z,100145.84
2023-01-06T05:57:24.398Z,100148.50
2023-01-06T05:58:06.242Z,100153.47
2023-01-06T05:58:52.911Z,100157.94
2023-01-06T05:59:34.557Z,100127.25
2023-01-06T06:00:16.511Z,100163.44
2023-01-06T06:00:58.402Z,100163.44
2023-01-06T06:01:40.034Z,100143.16
2023-01-06T06:02:21.828Z,100158.47
2023-01-06T06:03:03.962Z,100157.19
2023-01-06T06:03:45.690Z,100141.69
2023-01-06T06:04:27.318Z,100146.63
2023-01-06T06:05:09.257Z,100167.81
2023-01-06T06:05:50.953Z,100150.09
2023-01-06T06:06:32.629Z,100158.03
2023-01-06T06:07:14.437Z,100159.69
2023-01-06T06:07:56.675Z,100139.50
2023-01-06T06:08:38.547Z,100155.00
2023-01-06T06:09:20.196Z,100158.47
2023-01-06T06:10:02.419Z,100156.03
2023-01-06T06:10:44.112Z,100160.50
2023-01-06T06:11:25.822Z,100153.41
2023-01-06T06:12:07.665Z,100163.31
2023-01-06T06:12:52.409Z,100161.19
2023-01-06T06:13:34.504Z,100170.47
2023-01-06T06:14:17.295Z,100173.09
2023-01-06T06:14:59.108Z,100170.63
2023-01-06T06:15:40.775Z,100179.41
2023-01-06T06:16:27.443Z,100168.81
2023-01-06T06:17:09.213Z,100162.19
2023-01-06T06:17:50.842Z,100169.81
2023-01-06T06:18:32.597Z,100172.47
2023-01-06T06:19:14.488Z,100175.09
2023-01-06T06:19:56.115Z,100172.47
2023-01-06T06:20:37.837Z,100161.53
2023-01-06T06:21:25.471Z,100168.81
2023-01-06T06:22:10.387Z,100161.25
2023-01-06T06:22:52.973Z,100168.97
2023-01-06T06:23:34.868Z,100162.75
2023-01-06T06:24:16.569Z,100158.63
2023-01-06T06:24:58.326Z,100157.97
2023-01-06T06:25:39.987Z,100175.28
2023-01-06T06:26:22.547Z,100172.63
2023-01-06T06:27:04.485Z,100164.75
2023-01-06T06:27:46.115Z,100175.63
2023-01-06T06:28:30.572Z,100150.00
2023-01-06T06:29:12.245Z,100155.47
2023-01-06T06:29:53.928Z,100171.63
2023-01-06T06:30:35.682Z,100170.81
2023-01-06T06:31:20.463Z,100171.81
2023-01-06T06:32:02.191Z,100156.97
2023-01-06T06:32:43.825Z,100139.63
2023-01-06T06:33:25.473Z,100151.19
2023-01-06T06:34:07.161Z,100167.66
2023-01-06T06:34:48.853Z,100137.50
2023-01-06T06:35:30.608Z,100172.97
2023-01-06T06:36:16.181Z,100157.78
2023-01-06T06:36:57.897Z,100164.19
2023-01-06T06:37:39.692Z,100144.56
2023-01-06T06:38:21.374Z,100175.47
2023-01-06T06:39:03.527Z,100170.50
2023-01-06T06:39:45.232Z,100174.63
2023-01-06T06:40:29.191Z,100172.31
2023-01-06T06:41:11.446Z,100173.16
2023-01-06T06:41:53.085Z,100181.31
2023-01-06T06:42:34.759Z,100181.09
2023-01-06T06:43:16.418Z,100182.94
2023-01-06T06:43:58.136Z,100173.16
2023-01-06T06:44:39.970Z,100184.41
2023-01-06T06:45:21.600Z,100171.22
2023-01-06T06:46:03.412Z,100191.72
2023-01-06T06:46:45.126Z,100191.72
2023-01-06T06:47:27.669Z,100153.75
2023-01-06T06:48:09.479Z,100186.78
2023-01-06T06:48:51.211Z,100134.31
2023-01-06T06:49:32.866Z,100192.59
2023-01-06T06:50:14.752Z,100154.94
2023-01-06T06:51:01.672Z,100182.88
2023-01-06T06:51:43.285Z,100188.13
2023-01-06T06:52:24.938Z,100196.91
2023-01-06T06:53:07.515Z,100206.69
2023-01-06T06:53:50.355Z,100198.06
2023-01-06T06:54:32.015Z,100203.72
2023-01-06T06:55:13.656Z,100201.44
2023-01-06T06:55:56.426Z,100197.97
2023-01-06T06:56:38.114Z,100192.84
2023-01-06T06:57:19.737Z,100181.63
2023-01-06T06:58:01.492Z,100196.81
2023-01-06T06:58:43.704Z,100201.47
2023-01-06T06:59:25.350Z,100213.06
2023-01-06T07:00:07.844Z,100188.63
2023-01-06T07:00:49.465Z,100149.31
2023-01-06T07:01:32.402Z,100207.47
2023-01-06T07:02:14.315Z,100191.59
2023-01-06T07:02:56.002Z,100206.81
2023-01-06T07:03:38.519Z,100195.56
2023-01-06T07:04:20.220Z,100199.88
2023-01-06T07:05:02.963Z,100196.72
2023-01-06T07:05:47.455Z,100206.31
2023-01-06T07:06:29.294Z,100148.31
2023-01-06T07:07:10.940Z,100187.94
2023-01-06T07:07:52.647Z,100198.66
2023-01-06T07:08:34.583Z,100199.81
2023-01-06T07:09:16.162Z,100187.75
2023-01-06T07:09:57.873Z,100181.50
2023-01-06T07:10:40.076Z,100134.25
2023-01-06T07:11:21.709Z,100194.50
2023-01-06T07:12:03.832Z,100190.53
2023-01-06T07:12:45.450Z,100201.97
2023-01-06T07:13:27.655Z,100191.53
2023-01-06T07:14:09.314Z,100187.56
2023-01-06T07:14:51.084Z,100188.44
2023-01-06T07:15:33.276Z,100190.22
2023-01-06T07:16:15.993Z,100197.66
2023-01-06T07:17:02.009Z,100179.31
2023-01-06T07:17:43.715Z,100215.03
2023-01-06T07:18:27.864Z,100202.78
2023-01-06T07:19:10.100Z,100220.34
2023-01-06T07:19:51.698Z,100202.13
2023-01-06T07:20:35.341Z,100200.47
2023-01-06T07:21:16.971Z,100196.72
2023-01-06T07:21:58.625Z,100209.75
2023-01-06T07:22:40.890Z,100185.72
2023-01-06T07:23:23.901Z,100198.41
2023-01-06T07:24:06.392Z,100203.72
2023-01-06T07:24:47.999Z,100202.63
2023-01-06T07:25:30.125Z,100201.28
2023-01-06T07:26:11.875Z,100212.66
2023-01-06T07:26:53.445Z,100205.75
2023-01-06T07:27:35.783Z,100196.47
2023-01-06T07:28:17.432Z,100209.69
2023-01-06T07:28:59.210Z,100194.66
2023-01-06T07:29:40.861Z,100204.91
2023-01-06T07:30:24.138Z,100188.38
2023-01-06T07:31:05.862Z,100210.41
2023-01-06T07:31:48.527Z,100198.47
2023-01-06T07:32:30.220Z,100212.38
2023-01-06T07:33:12.124Z,100107.00
2023-01-06T07:33:53.733Z,100220.34
2023-01-06T07:34:35.392Z,100213.22
2023-01-06T07:35:18.093Z,100202.13
2023-01-06T07:35:59.752Z,100208.44
2023-01-06T07:36:41.403Z,100202.63
2023-01-06T07:37:23.039Z,100201.97
2023-01-06T07:38:06.370Z,100207.38
2023-01-06T07:38:48.030Z,100212.50
2023-01-06T07:39:29.603Z,100209.41
2023-01-06T07:40:12.122Z,100201.84
2023-01-06T07:40:58.883Z,100197.81
2023-01-06T07:41:41.699Z,100210.84
2023-01-06T07:42:26.527Z,100201.63
2023-01-06T07:43:10.431Z,100208.56
2023-01-06T07:43:52.074Z,100184.28
2023-01-06T07:44:33.738Z,100209.69
2023-01-06T07:45:15.422Z,100217.81
2023-01-06T07:45:57.221Z,100198.31
2023-01-06T07:46:38.845Z,100206.38
2023-01-06T07:47:20.389Z,100216.34
2023-01-06T07:48:02.465Z,100206.91
2023-01-06T07:48:44.089Z,100079.94
2023-01-06T07:49:25.743Z,100196.81
2023-01-06T07:50:07.652Z,100217.97
2023-01-06T07:50:49.261Z,100215.53
2023-01-06T07:51:30.991Z,100191.25
2023-01-06T07:52:13.060Z,100211.06
2023-01-06T07:52:57.808Z,100192.91
2023-01-06T07:53:39.584Z,100200.78
2023-01-06T07:54:21.252Z,100217.19
2023-01-06T07:55:03.492Z,100212.66
2023-01-06T07:55:54.937Z,100198.66
2023-01-06T07:56:36.644Z,100209.75
2023-01-06T07:57:18.317Z,100204.78
2023-01-06T07:58:04.294Z,100220.63
2023-01-06T07:58:45.944Z,100206.44
2023-01-06T07:59:27.639Z,100226.97
2023-01-06T08:00:09.882Z,100208.44
2023-01-06T08:00:54.517Z,100207.59
2023-01-06T08:01:36.531Z,100228.13
2023-01-06T08:02:18.310Z,100236.38
2023-01-06T08:03:04.528Z,100201.00
2023-01-06T08:03:46.253Z,100212.56
2023-01-06T08:04:27.974Z,100166.69
2023-01-06T08:05:09.731Z,100231.88
2023-01-06T08:05:51.407Z,100235.19
2023-01-06T08:06:33.132Z,100227.78
2023-01-06T08:07:16.115Z,100239.50
2023-01-06T08:07:58.126Z,100236.03
2023-01-06T08:08:40.878Z,100236.84
2023-01-06T08:09:22.561Z,100202.63
2023-01-06T08:10:04.558Z,100237.50
2023-01-06T08:10:46.250Z,100242.47
2023-01-06T08:11:28.985Z,100247.59
2023-01-06T08:12:11.983Z,100246.13
2023-01-06T08:12:53.561Z,100248.41
2023-01-06T08:13:36.634Z,100249.59
2023-01-06T08:14:18.506Z,100237.34
2023-01-06T08:15:00.230Z,100240.81
2023-01-06T08:15:41.993Z,100223.16
2023-01-06T08:16:23.705Z,100225.66
2023-01-06T08:17:05.673Z,100248.06
2023-01-06T08:17:47.353Z,100244.41
2023-01-06T08:18:29.028Z,100238.63
2023-01-06T08:19:10.723Z,100249.38
2023-01-06T08:19:52.431Z,100200.81
2023-01-06T08:20:34.360Z,100265.63
2023-01-06T08:21:16.017Z,100258.66
2023-01-06T08:21:57.694Z,100244.41
2023-01-06T08:22:39.282Z,100252.69
2023-01-06T08:23:20.978Z,100241.63
2023-01-06T08:24:02.639Z,100240.81
2023-01-06T08:24:44.219Z,100236.84
2023-01-06T08:25:25.943Z,100246.47
2023-01-06T08:26:13.730Z,100236.50
2023-01-06T08:26:55.453Z,100259.38
2023-01-06T08:27:37.097Z,100243.16
2023-01-06T08:28:18.845Z,100242.47
2023-01-06T08:29:00.449Z,100217.34
2023-01-06T08:29:42.054Z,100236.34
2023-01-06T08:30:23.617Z,100240.28
2023-01-06T08:31:09.540Z,100243.59
2023-01-06T08:31:54.744Z,100241.94
2023-01-06T08:32:38.544Z,100230.22